createdAt,value
2017-12-06T00:01:29.178Z,70.50
2017-12-06T00:03:56.648Z,69.90
2017-12-06T00:06:24.093Z,69.60
2017-12-06T00:08:51.732Z,69.60
2017-12-06T00:11:19.163Z,69.70
2017-12-06T00:13:52.765Z,69.50
2017-12-06T00:16:20.235Z,69.60
2017-12-06T00:18:47.676Z,69.30
2017-12-06T00:21:15.256Z,69.00
2017-12-06T00:23:42.817Z,69.30
2017-12-06T00:26:10.329Z,69.30
2017-12-06T00:28:39.718Z,68.90
2017-12-06T00:31:07.744Z,68.90
2017-12-06T00:33:35.544Z,69.00
2017-12-06T00:36:03.017Z,69.00
2017-12-06T00:38:30.451Z,68.70
2017-12-06T00:40:57.958Z,68.40
2017-12-06T00:43:26.834Z,68.50
2017-12-06T00:45:55.057Z,68.40
2017-12-06T00:48:22.953Z,68.40
2017-12-06T00:50:50.455Z,68.40
2017-12-06T00:53:17.930Z,67.80
2017-12-06T00:55:45.366Z,67.90
2017-12-06T00:58:14.204Z,67.70
2017-12-06T01:00:46.083Z,67.70
2017-12-06T01:03:13.950Z,67.80
2017-12-06T01:05:42.127Z,67.40
2017-12-06T01:08:10.334Z,68.10
2017-12-06T01:10:38.038Z,67.60
2017-12-06T01:13:06.133Z,67.60
2017-12-06T01:15:35.443Z,67.70
2017-12-06T01:18:02.950Z,67.60
2017-12-06T01:20:30.499Z,67.80
2017-12-06T01:22:58.040Z,67.70
2017-12-06T01:25:25.517Z,67.60
2017-12-06T01:27:53.465Z,67.80
2017-12-06T01:30:21.711Z,68.00
2017-12-06T01:32:49.738Z,67.90
2017-12-06T01:35:17.901Z,68.20
2017-12-06T01:37:45.395Z,68.20
2017-12-06T01:40:12.907Z,68.30
2017-12-06T01:42:40.383Z,68.40
2017-12-06T01:45:08.174Z,68.50
2017-12-06T01:47:35.991Z,68.30
2017-12-06T01:50:03.452Z,69.00
2017-12-06T01:52:31.046Z,68.20
2017-12-06T01:54:58.498Z,68.30
2017-12-06T01:57:26.471Z,68.30
2017-12-06T01:59:53.974Z,68.40
2017-12-06T02:02:21.580Z,68.20
2017-12-06T02:04:49.046Z,68.40
2017-12-06T02:07:16.533Z,68.20
2017-12-06T02:09:45.353Z,68.20
2017-12-06T02:12:12.808Z,68.10
2017-12-06T02:14:40.675Z,68.00
2017-12-06T02:17:08.108Z,68.30
2017-12-06T02:19:36.353Z,68.30
2017-12-06T02:22:04.584Z,68.20
2017-12-06T02:24:32.587Z,68.30
2017-12-06T02:27:00.034Z,68.20
2017-12-06T02:29:27.940Z,68.20
2017-12-06T02:31:56.171Z,68.60
2017-12-06T02:34:23.648Z,68.60
2017-12-06T02:36:51.097Z,68.20
2017-12-06T02:39:18.571Z,68.50
2017-12-06T02:41:58.027Z,68.40
2017-12-06T02:44:38.281Z,68.60
2017-12-06T02:47:07.203Z,68.50
2017-12-06T02:49:34.659Z,68.50
2017-12-06T02:52:02.247Z,68.50
2017-12-06T02:54:29.704Z,68.40
2017-12-06T02:56:57.230Z,68.60
2017-12-06T02:59:25.128Z,68.70
2017-12-06T03:01:52.595Z,69.30
2017-12-06T03:04:20.657Z,68.90
2017-12-06T03:06:48.135Z,69.00
2017-12-06T03:09:15.649Z,68.90
2017-12-06T03:11:44.515Z,68.90
2017-12-06T03:14:12.274Z,68.90
2017-12-06T03:16:40.244Z,69.00
2017-12-06T03:19:09.226Z,68.80
2017-12-06T03:21:37.185Z,68.70
2017-12-06T03:24:04.956Z,68.80
2017-12-06T03:26:33.354Z,69.00
2017-12-06T03:29:01.194Z,69.00
2017-12-06T03:31:28.684Z,69.20
2017-12-06T03:33:56.886Z,69.00
2017-12-06T03:36:24.452Z,69.00
2017-12-06T03:38:51.896Z,69.10
2017-12-06T03:41:19.469Z,69.00
2017-12-06T03:43:46.900Z,68.70
2017-12-06T03:46:14.822Z,68.80
2017-12-06T03:48:42.560Z,69.00
2017-12-06T03:51:09.994Z,69.10
2017-12-06T03:53:37.619Z,69.10
2017-12-06T03:56:05.086Z,69.10
2017-12-06T03:58:33.789Z,69.00
2017-12-06T04:01:02.133Z,69.00
2017-12-06T04:03:31.081Z,69.00
2017-12-06T04:05:58.526Z,69.00
2017-12-06T04:08:26.384Z,69.40
2017-12-06T04:10:53.975Z,69.40
2017-12-06T04:13:22.066Z,69.50
2017-12-06T04:15:49.646Z,69.50
2017-12-06T04:18:17.590Z,69.40
2017-12-06T04:20:45.056Z,69.90
2017-12-06T04:23:12.497Z,69.20
2017-12-06T04:25:39.977Z,69.30
2017-12-06T04:28:08.647Z,69.20
2017-12-06T04:30:36.113Z,69.30
2017-12-06T04:33:04.036Z,69.40
2017-12-06T04:35:31.609Z,69.20
2017-12-06T04:37:59.824Z,69.10
2017-12-06T04:40:27.293Z,69.80
2017-12-06T04:42:55.064Z,69.10
2017-12-06T04:45:23.273Z,69.60
2017-12-06T04:47:51.176Z,69.50
2017-12-06T04:50:19.216Z,69.40
2017-12-06T04:52:46.772Z,69.50
2017-12-06T04:55:14.470Z,69.40
2017-12-06T04:57:42.336Z,69.50
2017-12-06T05:00:11.223Z,70.00
2017-12-06T05:02:38.679Z,69.70
2017-12-06T05:05:06.223Z,69.50
2017-12-06T05:07:33.766Z,69.80
2017-12-06T05:10:01.764Z,69.80
2017-12-06T05:12:29.291Z,69.80
2017-12-06T05:14:57.224Z,70.20
2017-12-06T05:17:25.534Z,70.00
2017-12-06T05:19:52.996Z,69.90
2017-12-06T05:22:20.478Z,70.00
2017-12-06T05:24:48.458Z,70.00
2017-12-06T05:27:15.905Z,70.20
2017-12-06T05:29:43.638Z,69.90
2017-12-06T05:32:11.108Z,70.30
2017-12-06T05:34:38.649Z,70.20
2017-12-06T05:37:06.264Z,70.10
2017-12-06T05:39:34.122Z,69.90
2017-12-06T05:42:01.979Z,70.00
2017-12-06T05:44:29.431Z,70.00
2017-12-06T05:46:57.245Z,70.10
2017-12-06T05:49:24.853Z,70.00
2017-12-06T05:51:52.922Z,70.10
2017-12-06T05:54:20.393Z,69.90
2017-12-06T05:56:47.864Z,70.10
2017-12-06T05:59:15.326Z,70.20
2017-12-06T06:01:44.080Z,70.20
2017-12-06T06:04:11.608Z,70.20
2017-12-06T06:06:39.032Z,70.30
2017-12-06T06:09:07.297Z,70.30
2017-12-06T06:11:34.810Z,70.30
2017-12-06T06:14:02.765Z,70.40
2017-12-06T06:16:30.324Z,70.40
2017-12-06T06:18:58.397Z,70.50
2017-12-06T06:21:25.857Z,70.50
2017-12-06T06:23:53.762Z,70.50
2017-12-06T06:26:21.260Z,70.30
2017-12-06T06:28:50.278Z,70.40
2017-12-06T06:31:17.830Z,70.40
2017-12-06T06:33:45.287Z,70.60
2017-12-06T06:36:13.390Z,70.60
2017-12-06T06:38:42.356Z,70.60
2017-12-06T06:41:09.812Z,70.60
2017-12-06T06:43:37.391Z,70.50
2017-12-06T06:46:04.837Z,70.50
2017-12-06T06:48:32.713Z,70.60
2017-12-06T06:51:00.154Z,70.60
2017-12-06T06:53:27.699Z,70.50
2017-12-06T06:55:55.724Z,70.50
2017-12-06T06:58:24.179Z,70.60
2017-12-06T07:00:51.746Z,70.60
2017-12-06T07:03:19.265Z,70.50
2017-12-06T07:05:46.696Z,70.60
2017-12-06T07:08:14.904Z,70.80
2017-12-06T07:10:42.429Z,70.80
2017-12-06T07:13:11.173Z,70.80
2017-12-06T07:15:38.645Z,70.80
2017-12-06T07:18:06.858Z,70.70
2017-12-06T07:20:34.360Z,70.80
2017-12-06T07:23:01.801Z,70.80
2017-12-06T07:25:29.378Z,70.50
2017-12-06T07:27:56.829Z,70.60
2017-12-06T07:30:24.609Z,70.80
2017-12-06T07:32:52.045Z,70.70
2017-12-06T07:35:19.574Z,70.80
2017-12-06T07:37:47.473Z,70.50
2017-12-06T07:40:14.913Z,70.60
2017-12-06T07:42:42.693Z,70.80
2017-12-06T07:45:10.226Z,70.70
2017-12-06T07:47:38.153Z,70.80
2017-12-06T07:50:06.466Z,70.80
2017-12-06T07:52:34.160Z,70.80
2017-12-06T07:55:01.653Z,70.80
2017-12-06T07:57:29.863Z,70.90
2017-12-06T07:59:57.523Z,70.90
2017-12-06T08:02:25.002Z,70.80
2017-12-06T08:04:52.513Z,70.70
2017-12-06T08:07:20.510Z,70.80
2017-12-06T08:09:47.972Z,70.80
2017-12-06T08:12:15.527Z,70.90
2017-12-06T08:14:43.437Z,70.90
2017-12-06T08:17:10.945Z,70.90
2017-12-06T08:19:38.608Z,71.00
2017-12-06T08:22:06.050Z,70.70
2017-12-06T08:24:33.895Z,70.70
2017-12-06T08:27:01.397Z,70.60
2017-12-06T08:29:29.354Z,70.70
2017-12-06T08:31:56.875Z,70.70
2017-12-06T08:34:25.725Z,70.60
2017-12-06T08:36:53.200Z,70.60
2017-12-06T08:39:20.726Z,70.70
2017-12-06T08:41:48.609Z,70.80
2017-12-06T08:44:16.110Z,70.70
2017-12-06T08:46:44.345Z,70.70
2017-12-06T08:49:12.215Z,70.70
2017-12-06T08:51:39.920Z,70.60
2017-12-06T08:54:08.219Z,70.40
2017-12-06T08:56:36.120Z,70.30
2017-12-06T08:59:03.698Z,70.50
2017-12-06T09:01:31.203Z,70.70
2017-12-06T09:03:58.661Z,70.80
2017-12-06T09:06:26.688Z,70.80
2017-12-06T09:08:54.156Z,71.10
2017-12-06T09:11:22.364Z,70.40
2017-12-06T09:13:51.174Z,70.30
2017-12-06T09:16:18.634Z,70.40
2017-12-06T09:18:46.634Z,70.40
2017-12-06T09:21:14.184Z,70.70
2017-12-06T09:23:42.311Z,70.70
2017-12-06T09:26:09.861Z,70.60
2017-12-06T09:28:37.770Z,70.60
2017-12-06T09:31:06.128Z,70.50
2017-12-06T09:33:33.665Z,70.60
2017-12-06T09:36:01.308Z,70.60
2017-12-06T09:38:29.600Z,70.50
2017-12-06T09:40:57.158Z,70.40
2017-12-06T09:43:25.040Z,70.60
2017-12-06T09:45:53.095Z,70.60
2017-12-06T09:48:21.026Z,70.70
2017-12-06T09:50:48.519Z,70.50
2017-12-06T09:53:15.977Z,70.30
2017-12-06T09:55:43.436Z,70.20
2017-12-06T09:58:10.896Z,70.00
2017-12-06T10:00:38.353Z,70.00
2017-12-06T10:03:05.806Z,70.10
2017-12-06T10:05:33.318Z,69.90
2017-12-06T10:08:00.832Z,69.80
2017-12-06T10:10:28.275Z,69.90
2017-12-06T10:12:56.169Z,70.00
2017-12-06T10:15:23.951Z,70.00
2017-12-06T10:17:51.382Z,69.70
2017-12-06T10:20:19.034Z,69.90
2017-12-06T10:22:46.489Z,69.50
2017-12-06T10:25:13.957Z,69.60
2017-12-06T10:27:41.753Z,69.60
2017-12-06T10:30:09.702Z,69.60
2017-12-06T10:32:37.536Z,69.40
2017-12-06T10:35:05.633Z,69.30
2017-12-06T10:37:33.080Z,69.10
2017-12-06T10:40:00.550Z,68.90
2017-12-06T10:42:27.993Z,69.00
2017-12-06T10:44:55.466Z,68.80
2017-12-06T10:47:23.364Z,69.30
2017-12-06T10:49:51.673Z,68.70
2017-12-06T10:52:19.128Z,68.60
2017-12-06T10:54:46.687Z,68.70
2017-12-06T10:57:14.119Z,68.80
2017-12-06T10:59:42.653Z,68.50
2017-12-06T11:02:10.190Z,68.50
2017-12-06T11:04:37.742Z,68.30
2017-12-06T11:07:05.607Z,68.50
2017-12-06T11:09:33.077Z,68.40
2017-12-06T11:12:00.623Z,68.60
2017-12-06T11:14:28.330Z,68.80
2017-12-06T11:16:56.662Z,69.10
2017-12-06T11:19:24.117Z,69.00
2017-12-06T11:21:51.575Z,68.80
2017-12-06T11:24:20.390Z,69.00
2017-12-06T11:26:47.829Z,68.90
2017-12-06T11:29:15.737Z,69.10
2017-12-06T11:31:43.205Z,69.20
2017-12-06T11:34:11.520Z,69.20
2017-12-06T11:36:39.145Z,69.10
2017-12-06T11:39:07.348Z,69.20
2017-12-06T11:41:34.841Z,69.00
2017-12-06T11:44:02.334Z,69.10
2017-12-06T11:46:30.539Z,69.70
2017-12-06T11:48:59.863Z,69.30
2017-12-06T11:51:27.319Z,69.20
2017-12-06T11:53:56.109Z,69.60
2017-12-06T11:56:24.463Z,69.60
2017-12-06T11:58:52.736Z,69.70
2017-12-06T12:01:20.775Z,69.80
2017-12-06T12:03:48.985Z,69.60
2017-12-06T12:06:16.458Z,69.60
2017-12-06T12:08:43.900Z,69.60
2017-12-06T12:11:11.628Z,69.60
2017-12-06T12:13:40.353Z,69.40
2017-12-06T12:16:07.865Z,69.30
2017-12-06T12:18:36.088Z,70.10
2017-12-06T12:21:03.555Z,69.40
2017-12-06T12:23:31.091Z,69.50
2017-12-06T12:25:59.309Z,69.50
2017-12-06T12:28:28.770Z,69.50
2017-12-06T12:30:56.319Z,69.40
2017-12-06T12:33:23.820Z,69.70
2017-12-06T12:35:51.390Z,69.60
2017-12-06T12:38:18.878Z,69.40
2017-12-06T12:40:47.189Z,69.50
2017-12-06T12:43:14.737Z,69.30
2017-12-06T12:45:45.982Z,69.20
2017-12-06T12:48:13.981Z,69.30
2017-12-06T12:50:41.509Z,69.60
2017-12-06T12:53:09.305Z,69.50
2017-12-06T12:55:36.832Z,69.40
2017-12-06T12:58:04.325Z,69.10
2017-12-06T13:00:31.832Z,69.20
2017-12-06T13:02:59.857Z,69.10
2017-12-06T13:05:27.377Z,68.70
2017-12-06T13:07:54.812Z,68.60
2017-12-06T13:10:22.606Z,68.80
2017-12-06T13:12:50.070Z,68.70
2017-12-06T13:15:18.068Z,68.50
2017-12-06T13:17:45.903Z,68.50
2017-12-06T13:20:14.224Z,68.60
2017-12-06T13:22:42.463Z,68.60
2017-12-06T13:25:09.930Z,68.50
2017-12-06T13:27:37.393Z,68.50
2017-12-06T13:30:05.037Z,68.60
2017-12-06T13:32:32.561Z,68.80
2017-12-06T13:35:00.127Z,69.00
2017-12-06T13:37:28.354Z,69.00
2017-12-06T13:39:55.793Z,69.00
2017-12-06T13:42:23.264Z,68.90
2017-12-06T13:44:50.730Z,69.10
2017-12-06T13:47:19.483Z,69.00
2017-12-06T13:49:46.929Z,69.00
2017-12-06T13:52:14.917Z,69.10
2017-12-06T13:54:42.443Z,68.90
2017-12-06T13:57:10.040Z,69.10
2017-12-06T13:59:37.524Z,68.80
2017-12-06T14:02:06.284Z,68.60
2017-12-06T14:04:34.041Z,68.50
2017-12-06T14:07:02.068Z,68.50
2017-12-06T14:09:29.516Z,68.60
2017-12-06T14:11:57.010Z,68.40
2017-12-06T14:14:25.100Z,68.20
2017-12-06T14:16:52.743Z,68.00
2017-12-06T14:19:20.189Z,68.00
2017-12-06T14:21:47.657Z,67.80
2017-12-06T14:24:15.162Z,67.90
2017-12-06T14:26:42.693Z,67.80
2017-12-06T14:29:10.470Z,67.80
2017-12-06T14:31:38.075Z,67.70
2017-12-06T14:34:05.586Z,67.50
2017-12-06T14:36:34.525Z,67.80
2017-12-06T14:39:02.054Z,67.70
2017-12-06T14:41:30.807Z,67.80
2017-12-06T14:43:58.850Z,68.30
2017-12-06T14:46:26.318Z,67.60
2017-12-06T14:48:54.505Z,67.60
2017-12-06T14:51:21.949Z,67.50
2017-12-06T14:53:49.550Z,67.40
2017-12-06T14:56:17.760Z,68.10
2017-12-06T14:58:45.271Z,67.50
2017-12-06T15:01:13.578Z,67.20
2017-12-06T15:03:42.315Z,67.60
2017-12-06T15:06:10.183Z,67.30
2017-12-06T15:08:37.677Z,67.50
2017-12-06T15:11:05.973Z,67.60
2017-12-06T15:13:34.181Z,67.50
2017-12-06T15:16:01.630Z,67.70
2017-12-06T15:18:29.172Z,67.90
2017-12-06T15:20:56.780Z,67.80
2017-12-06T15:23:24.340Z,67.70
2017-12-06T15:25:51.818Z,67.80
2017-12-06T15:28:20.571Z,67.90
2017-12-06T15:30:48.497Z,67.90
2017-12-06T15:33:15.975Z,67.90
2017-12-06T15:35:43.515Z,67.80
2017-12-06T15:38:11.072Z,67.80
2017-12-06T15:40:38.510Z,67.60
2017-12-06T15:43:05.967Z,67.70
2017-12-06T15:45:33.446Z,67.90
2017-12-06T15:48:01.340Z,67.60
2017-12-06T15:50:29.480Z,67.70
2017-12-06T15:52:57.117Z,67.50
2017-12-06T15:55:25.331Z,67.80
2017-12-06T15:57:52.873Z,67.80
2017-12-06T16:00:20.538Z,67.70
2017-12-06T16:02:48.382Z,67.80
2017-12-06T16:05:16.735Z,67.70
2017-12-06T16:07:44.507Z,67.60
2017-12-06T16:10:14.047Z,67.20
2017-12-06T16:12:41.540Z,67.60
2017-12-06T16:15:09.369Z,67.60
2017-12-06T16:17:36.894Z,67.90
2017-12-06T16:20:05.758Z,67.70
2017-12-06T16:22:33.229Z,67.70
2017-12-06T16:25:01.456Z,67.60
2017-12-06T16:27:29.213Z,67.50
2017-12-06T16:29:57.083Z,67.30
2017-12-06T16:32:25.008Z,67.40
2017-12-06T16:35:05.217Z,67.10
2017-12-06T16:37:33.603Z,67.00
2017-12-06T16:40:01.122Z,67.10
2017-12-06T16:42:29.354Z,66.60
2017-12-06T16:44:57.063Z,66.60
2017-12-06T16:47:25.732Z,66.70
2017-12-06T16:49:54.005Z,66.40
2017-12-06T16:52:22.213Z,66.30
2017-12-06T16:54:49.704Z,66.30
2017-12-06T16:57:17.802Z,66.20
2017-12-06T16:59:46.373Z,66.20
2017-12-06T17:02:14.332Z,66.20
2017-12-06T17:04:42.252Z,65.70
2017-12-06T17:07:09.714Z,65.90
2017-12-06T17:09:37.830Z,65.90
2017-12-06T17:12:06.290Z,65.50
2017-12-06T17:14:34.291Z,65.50
2017-12-06T17:17:02.201Z,65.30
2017-12-06T17:19:29.756Z,65.30
2017-12-06T17:21:57.531Z,65.80
2017-12-06T17:24:25.183Z,65.30
2017-12-06T17:26:53.312Z,65.40
2017-12-06T17:29:33.860Z,65.70
2017-12-06T17:32:01.635Z,65.70
2017-12-06T17:34:30.321Z,65.70
2017-12-06T17:36:57.841Z,65.70
2017-12-06T17:39:26.269Z,65.90
2017-12-06T17:41:54.600Z,65.70
2017-12-06T17:44:23.422Z,66.10
2017-12-06T17:46:52.124Z,66.20
2017-12-06T17:49:20.432Z,66.30
2017-12-06T17:51:47.909Z,66.50
2017-12-06T17:54:16.069Z,66.80
2017-12-06T17:56:47.722Z,67.00
2017-12-06T17:59:15.769Z,67.00
2017-12-06T18:01:44.150Z,67.10
2017-12-06T18:04:12.644Z,67.20
2017-12-06T18:06:41.977Z,67.30
2017-12-06T18:09:11.077Z,67.60
2017-12-06T18:11:41.068Z,67.60
2017-12-06T18:14:08.911Z,67.90
2017-12-06T18:16:36.380Z,68.60
2017-12-06T18:19:08.208Z,68.60
2017-12-06T18:21:36.139Z,68.80
2017-12-06T18:24:04.686Z,69.00
2017-12-06T18:26:33.882Z,69.50
2017-12-06T18:29:01.722Z,69.30
2017-12-06T18:31:31.472Z,69.60
2017-12-06T18:33:58.985Z,69.50
2017-12-06T18:36:27.609Z,69.70
2017-12-06T18:38:56.761Z,69.60
2017-12-06T18:41:25.967Z,69.80
2017-12-06T18:43:55.167Z,69.70
2017-12-06T18:46:22.754Z,69.60
2017-12-06T18:48:51.412Z,69.60
2017-12-06T18:51:19.285Z,69.60
2017-12-06T18:53:46.902Z,69.50
2017-12-06T18:56:15.245Z,70.20
2017-12-06T18:58:42.797Z,70.10
2017-12-06T19:01:11.279Z,69.60
2017-12-06T19:03:40.680Z,69.50
2017-12-06T19:06:08.600Z,69.40
2017-12-06T19:08:37.498Z,69.50
2017-12-06T19:11:06.025Z,69.60
2017-12-06T19:13:36.091Z,69.60
2017-12-06T19:16:04.978Z,69.70
2017-12-06T19:18:32.601Z,69.60
2017-12-06T19:21:01.206Z,69.50
2017-12-06T19:23:33.140Z,69.50
2017-12-06T19:26:02.743Z,69.50
2017-12-06T19:28:31.531Z,69.30
2017-12-06T19:30:59.394Z,69.50
2017-12-06T19:33:27.383Z,69.70
2017-12-06T19:35:55.648Z,69.70
2017-12-06T19:38:23.877Z,70.30
2017-12-06T19:40:52.789Z,69.60
2017-12-06T19:43:21.236Z,69.60
2017-12-06T19:45:50.057Z,69.50
2017-12-06T19:48:18.151Z,69.60
2017-12-06T19:50:45.642Z,69.60
2017-12-06T19:53:14.606Z,69.60
2017-12-06T19:55:42.889Z,69.60
2017-12-06T19:58:13.539Z,69.60
2017-12-06T20:00:44.059Z,69.50
2017-12-06T20:03:13.296Z,69.60
2017-12-06T20:05:41.996Z,69.70
2017-12-06T20:08:10.902Z,69.50
2017-12-06T20:10:38.464Z,69.60
2017-12-06T20:13:10.409Z,70.30
2017-12-06T20:15:43.229Z,69.70
2017-12-06T20:18:13.973Z,69.80
2017-12-06T20:20:41.576Z,70.00
2017-12-06T20:23:10.104Z,70.00
2017-12-06T20:25:37.949Z,70.10
2017-12-06T20:28:07.624Z,70.00
2017-12-06T20:30:36.045Z,70.10
2017-12-06T20:33:03.547Z,70.00
2017-12-06T20:35:33.225Z,69.90
2017-12-06T20:38:01.891Z,69.80
2017-12-06T20:40:30.189Z,70.00
2017-12-06T20:42:58.765Z,69.90
2017-12-06T20:45:27.019Z,69.90
2017-12-06T20:47:57.040Z,70.00
2017-12-06T20:50:26.628Z,70.10
2017-12-06T20:52:54.607Z,70.20
2017-12-06T20:55:23.613Z,70.10
2017-12-06T20:57:52.106Z,70.90
2017-12-06T21:00:19.991Z,70.20
2017-12-06T21:02:47.525Z,70.20
2017-12-06T21:05:16.194Z,70.10
2017-12-06T21:07:46.023Z,70.00
2017-12-06T21:10:14.090Z,70.20
2017-12-06T21:12:43.886Z,70.10
2017-12-06T21:15:12.354Z,70.20
2017-12-06T21:17:40.698Z,70.30
2017-12-06T21:20:12.710Z,70.30
2017-12-06T21:22:40.431Z,71.00
2017-12-06T21:25:10.083Z,70.30
2017-12-06T21:27:37.553Z,70.30
2017-12-06T21:30:06.110Z,70.10
2017-12-06T21:32:34.763Z,70.10
2017-12-06T21:35:04.204Z,70.10
2017-12-06T21:37:33.329Z,70.10
2017-12-06T21:40:00.891Z,70.10
2017-12-06T21:42:29.398Z,69.80
2017-12-06T21:44:58.893Z,69.60
2017-12-06T21:47:27.063Z,69.60
2017-12-06T21:49:54.627Z,70.50
2017-12-06T21:52:23.465Z,69.20
2017-12-06T21:54:51.333Z,69.10
2017-12-06T21:57:18.819Z,68.80
2017-12-06T21:59:46.311Z,68.90
2017-12-06T22:02:15.088Z,68.40
2017-12-06T22:04:43.188Z,68.30
2017-12-06T22:07:12.102Z,68.40
2017-12-06T22:09:39.617Z,68.00
2017-12-06T22:12:07.940Z,67.90
2017-12-06T22:14:36.523Z,67.80
2017-12-06T22:17:05.326Z,67.20
2017-12-06T22:19:33.026Z,66.90
2017-12-06T22:22:01.460Z,65.40
2017-12-06T22:24:29.146Z,64.60
2017-12-06T22:26:56.779Z,63.80
2017-12-06T22:29:24.678Z,63.80
2017-12-06T22:31:52.137Z,63.60
2017-12-06T22:34:20.003Z,63.60
2017-12-06T22:36:47.451Z,63.30
2017-12-06T22:39:14.899Z,63.30
2017-12-06T22:41:42.637Z,63.00
2017-12-06T22:44:11.260Z,61.40
2017-12-06T22:46:38.777Z,61.20
2017-12-06T22:49:06.717Z,60.60
2017-12-06T22:51:35.403Z,60.20
2017-12-06T22:54:03.704Z,59.70
2017-12-06T22:56:31.514Z,59.70
2017-12-06T22:58:58.962Z,59.40
2017-12-06T23:01:26.621Z,59.30
2017-12-06T23:03:54.594Z,59.50
2017-12-06T23:06:22.076Z,59.60
2017-12-06T23:08:50.281Z,59.30
2017-12-06T23:11:18.299Z,59.30
2017-12-06T23:13:45.980Z,59.30
2017-12-06T23:16:15.407Z,59.30
2017-12-06T23:18:42.881Z,59.30
2017-12-06T23:21:10.316Z,59.60
2017-12-06T23:23:37.798Z,59.30
2017-12-06T23:26:05.245Z,59.30
2017-12-06T23:28:33.344Z,59.40
2017-12-06T23:31:00.787Z,59.30
2017-12-06T23:33:28.398Z,59.10
2017-12-06T23:35:57.425Z,59.50
2017-12-06T23:38:25.010Z,59.50
2017-12-06T23:40:52.474Z,59.50
2017-12-06T23:43:21.230Z,59.20
2017-12-06T23:45:49.328Z,59.40
2017-12-06T23:48:17.229Z,59.40
2017-12-06T23:50:45.435Z,59.60
2017-12-06T23:53:12.918Z,59.60
2017-12-06T23:55:40.505Z,59.50
2017-12-06T23:58:07.970Z,59.60
